Weather reports worldwide

Advertisment
Cieza, Spain (8363): temperature & dewpoint: 06.12.2018 00:00:00 - 12.12.2018 00:00:00 (CET)Cieza, Spain (8363): wind speed & gusts: 06.12.2018 00:00:00 - 12.12.2018 00:00:00 (CET)Cieza, Spain (8363): wind direction: 06.12.2018 00:00:00 - 12.12.2018 00:00:00 (CET)Cieza, Spain (8363): precipitation: 06.12.2018 00:00:00 - 12.12.2018 00:00:00 (CET)
Date & Time tt [°C] td [°C] ff [km/h] ff [kn] fx [km/h] fx [kn] dd rr [mm]
12.12.2018 00:00:00 7,6 4,6 10 5 13 7 W 0,0
11.12.2018 23:00:00 8,7 5,1 9 5 14 8 W 0,0
11.12.2018 22:00:00 8,6 5,5 11 6 14 8 W 0,0
11.12.2018 21:00:00 8,6 5,5 5 3 9 5 W 0,0
11.12.2018 20:00:00 9,2 5,6 3 2 9 5 WNW 0,0
11.12.2018 19:00:00 8,9 5,3 4 2 5 3 W -
11.12.2018 18:00:00 10,0 5,0 0 0 0 0 N 0,0
11.12.2018 17:00:00 15,2 5,4 0 0 0 0 N 0,0
11.12.2018 16:00:00 15,4 5,1 2 1 10 5 W 0,0
11.12.2018 15:00:00 13,1 6,2 8 4 13 7 W 0,0
11.12.2018 14:00:00 11,0 5,5 10 6 17 9 W 0,0
11.12.2018 13:00:00 9,1 6,2 10 5 16 9 W -
11.12.2018 12:00:00 7,6 6,1 8 4 16 9 WNW 0,0
11.12.2018 11:00:00 6,0 5,3 10 5 15 8 W 0,0
11.12.2018 10:00:00 6,0 5,4 4 2 13 7 WNW 0,0
11.12.2018 09:00:00 5,7 5,3 5 3 14 8 WNW 0,0
11.12.2018 08:00:00 5,0 4,4 9 5 14 7 WNW 0,0
11.12.2018 07:00:00 3,9 3,5 9 5 17 9 W -
11.12.2018 06:00:00 4,6 3,9 9 5 12 6 W 0,0
11.12.2018 05:00:00 4,7 4,0 8 5 13 7 W 0,0
11.12.2018 04:00:00 4,7 4,0 8 5 11 6 W 0,0
11.12.2018 03:00:00 5,7 5,0 4 2 9 5 W 0,0
11.12.2018 02:00:00 5,9 5,2 5 3 9 5 WNW 0,0
11.12.2018 01:00:00 6,5 5,6 1 1 10 6 WNW -
11.12.2018 00:00:00 8,4 7,5 8 5 10 6 W 0,0
10.12.2018 23:00:00 8,9 7,4 0 0 6 3 NE 0,0
10.12.2018 22:00:00 9,3 7,4 1 1 10 5 E 0,0
10.12.2018 21:00:00 12,0 9,2 9 5 16 9 ESE 0,0
10.12.2018 20:00:00 12,7 10,2 11 6 18 10 SE 0,0
10.12.2018 19:00:00 13,2 10,0 10 6 20 11 SE -
10.12.2018 18:00:00 14,4 7,9 6 4 13 7 SE 0,0
10.12.2018 17:00:00 16,6 8,6 10 5 17 9 SE 0,0
10.12.2018 16:00:00 18,3 9,4 6 3 14 8 ESE 0,0
10.12.2018 15:00:00 18,5 7,9 1 0 6 3 NW 0,0
10.12.2018 14:00:00 17,4 7,5 1 0 6 3 NW 0,0
10.12.2018 13:00:00 15,5 4,9 5 3 11 6 WNW -
10.12.2018 12:00:00 12,7 4,7 7 4 10 5 W 0,0
10.12.2018 11:00:00 10,0 3,7 5 3 9 5 W 0,0
10.12.2018 10:00:00 8,2 3,5 1 0 4 2 W 0,0
10.12.2018 09:00:00 5,8 3,0 0 0 12 7 N 0,0
10.12.2018 08:00:00 4,3 1,7 0 0 12 6 W 0,0
10.12.2018 07:00:00 6,2 2,8 10 5 15 8 W -
10.12.2018 06:00:00 8,3 3,6 13 7 19 10 W 0,0
10.12.2018 05:00:00 8,5 3,8 10 6 20 11 W 0,0
10.12.2018 04:00:00 8,8 4,0 9 5 14 8 W 0,0
10.12.2018 03:00:00 10,4 4,6 9 5 19 11 W 0,0
10.12.2018 02:00:00 11,0 5,3 9 5 16 8 W 0,0
10.12.2018 01:00:00 9,9 4,9 3 2 16 8 NW -
10.12.2018 00:00:00 12,8 4,8 9 5 18 10 W 0,0
09.12.2018 23:00:00 14,0 5,1 12 6 19 10 W 0,0
09.12.2018 22:00:00 14,9 4,9 14 8 20 11 W 0,0
09.12.2018 21:00:00 14,2 4,2 2 1 11 6 W 0,0
09.12.2018 20:00:00 16,3 5,6 3 2 14 8 W 0,0
09.12.2018 19:00:00 16,5 6,1 9 5 11 6 WSW -
09.12.2018 18:00:00 15,9 5,5 0 0 6 3 W 0,0
09.12.2018 17:00:00 22,4 6,6 3 2 7 4 S 0,0
09.12.2018 16:00:00 22,7 6,5 4 2 12 6 W 0,0
09.12.2018 15:00:00 21,6 5,9 5 3 16 9 W 0,0
09.12.2018 14:00:00 19,1 5,2 10 5 18 10 W 0,0
09.12.2018 13:00:00 17,1 4,8 14 7 21 12 WNW -
09.12.2018 12:00:00 14,3 4,0 10 5 17 9 WNW 0,0
09.12.2018 11:00:00 10,2 4,6 11 6 16 9 W 0,0
09.12.2018 10:00:00 6,8 3,8 10 6 15 8 W 0,0
09.12.2018 09:00:00 5,5 3,2 10 5 13 7 W 0,0
09.12.2018 08:00:00 4,5 3,2 11 6 15 8 W 0,0
09.12.2018 07:00:00 4,9 3,2 10 5 16 9 W -
09.12.2018 06:00:00 5,5 3,7 9 5 12 7 W 0,0
09.12.2018 05:00:00 5,3 4,0 8 4 13 7 W 0,0
09.12.2018 04:00:00 5,9 4,9 9 5 18 10 W 0,0
09.12.2018 03:00:00 6,2 5,5 11 6 15 8 W 0,0
09.12.2018 02:00:00 7,0 6,1 8 4 13 7 W 0,0
09.12.2018 01:00:00 7,7 6,8 10 5 13 7 W -
09.12.2018 00:00:00 7,7 6,3 0 0 8 4 N 0,0
08.12.2018 23:00:00 8,4 7,5 0 0 4 2 SE 0,0
08.12.2018 22:00:00 9,4 8,0 0 0 5 3 N 0,0
08.12.2018 21:00:00 12,2 10,3 2 1 15 8 SSE 0,0
08.12.2018 20:00:00 12,8 10,3 10 5 16 9 SSE 0,0
08.12.2018 19:00:00 13,5 10,7 9 5 18 10 SE -
08.12.2018 18:00:00 14,3 4,3 1 0 12 7 WNW 0,0
08.12.2018 17:00:00 18,6 6,5 5 3 18 10 NNW 0,0
08.12.2018 16:00:00 19,4 7,2 11 6 19 10 WNW 0,0
08.12.2018 15:00:00 19,4 7,5 9 5 18 10 WNW 0,0
08.12.2018 14:00:00 18,8 7,9 5 3 17 9 NW 0,0
08.12.2018 13:00:00 18,4 7,8 8 4 19 10 NW -
08.12.2018 12:00:00 16,8 8,0 6 4 19 10 NW 0,0
08.12.2018 11:00:00 15,3 8,1 4 2 11 6 W 0,0
08.12.2018 10:00:00 10,7 5,3 7 4 12 6 W 0,0
08.12.2018 09:00:00 8,4 3,9 8 4 12 7 W 0,0
08.12.2018 08:00:00 7,3 2,8 10 5 16 9 W 0,0
08.12.2018 07:00:00 8,3 4,0 7 4 14 8 W -
08.12.2018 06:00:00 9,2 4,2 10 6 18 10 W 0,0
08.12.2018 05:00:00 8,6 4,0 9 5 16 9 SW 0,0
08.12.2018 04:00:00 10,6 5,0 11 6 16 9 W 0,0
08.12.2018 03:00:00 11,0 4,9 10 5 17 9 W 0,0
08.12.2018 02:00:00 10,9 4,2 10 5 20 11 W 0,0
08.12.2018 01:00:00 11,3 4,3 8 5 19 10 W -
08.12.2018 00:00:00 11,5 4,5 12 7 18 10 W 0,0
07.12.2018 23:00:00 11,8 5,0 12 6 16 9 W 0,0
07.12.2018 22:00:00 11,8 5,5 9 5 17 9 W 0,0
07.12.2018 21:00:00 12,4 6,0 12 7 17 9 W 0,0
07.12.2018 20:00:00 12,6 5,8 5 3 10 5 W 0,0
07.12.2018 19:00:00 13,9 5,8 6 3 8 5 W -
07.12.2018 18:00:00 13,0 5,9 1 1 8 4 W 0,0
07.12.2018 17:00:00 19,8 7,2 4 2 9 5 WSW 0,0
07.12.2018 16:00:00 20,1 6,5 5 3 10 5 WNW 0,0
07.12.2018 15:00:00 18,9 6,7 5 3 13 7 WNW 0,0
07.12.2018 14:00:00 17,5 7,6 8 4 16 9 W 0,0
07.12.2018 13:00:00 15,7 7,5 10 5 18 10 W -
07.12.2018 12:00:00 13,2 6,1 12 6 18 10 WNW 0,0
07.12.2018 11:00:00 10,1 5,5 10 5 14 8 W 0,0
07.12.2018 10:00:00 7,7 4,7 10 5 19 10 W 0,0
07.12.2018 09:00:00 6,1 4,4 14 8 20 11 W 0,0
07.12.2018 08:00:00 6,1 4,7 16 8 19 11 W 0,0
07.12.2018 07:00:00 6,2 5,2 14 8 19 10 W -
07.12.2018 06:00:00 6,2 5,2 9 5 14 7 W 0,0
07.12.2018 05:00:00 7,2 5,7 10 6 16 9 W 0,0
07.12.2018 04:00:00 7,2 6,1 8 5 14 8 W 0,0
07.12.2018 03:00:00 7,8 6,7 10 5 16 9 W 0,0
07.12.2018 02:00:00 8,2 7,1 10 5 16 8 W 0,0
07.12.2018 01:00:00 9,0 7,6 10 6 16 9 W -
07.12.2018 00:00:00 9,0 7,9 9 5 11 6 W 0,0
06.12.2018 23:00:00 10,2 8,8 6 3 8 4 W 0,0
06.12.2018 22:00:00 10,2 8,5 1 1 5 3 E 0,0
06.12.2018 21:00:00 11,4 8,6 1 0 6 3 ESE 0,0
06.12.2018 20:00:00 13,3 9,2 5 3 12 6 SSE 0,0
06.12.2018 19:00:00 14,8 10,8 9 5 19 10 SE -
06.12.2018 18:00:00 16,5 11,0 11 6 20 11 SE 0,0
06.12.2018 17:00:00 19,6 8,6 13 7 23 12 SE 0,0
06.12.2018 16:00:00 22,3 8,8 10 5 18 10 ESE 0,0
06.12.2018 15:00:00 22,3 8,8 6 4 12 7 W 0,0
06.12.2018 14:00:00 20,9 9,2 7 4 16 9 W 0,0
06.12.2018 13:00:00 18,9 8,8 10 6 18 10 W -
06.12.2018 12:00:00 17,4 8,3 8 4 17 9 WNW 0,0
06.12.2018 11:00:00 14,3 7,1 8 4 18 10 W 0,0
06.12.2018 10:00:00 10,8 6,0 14 8 19 11 W 0,0
06.12.2018 09:00:00 8,2 5,1 11 6 18 10 W 0,0
06.12.2018 08:00:00 8,6 5,0 13 7 16 9 W 0,0
06.12.2018 07:00:00 9,1 5,3 10 6 16 8 W -
06.12.2018 06:00:00 7,4 4,9 12 6 21 11 WNW 0,0
06.12.2018 05:00:00 8,0 5,3 11 6 18 10 W 0,0
06.12.2018 04:00:00 8,4 5,7 14 7 19 10 W 0,0
06.12.2018 03:00:00 9,0 6,3 13 7 18 10 W 0,0
06.12.2018 02:00:00 9,8 7,1 11 6 17 9 W 0,0
06.12.2018 01:00:00 10,1 7,4 14 7 19 10 W -
06.12.2018 00:00:00 10,6 7,8 11 6 16 9 W 0,0

tt = temperature
td = dewpoint
ff = wind speed
fx = gusts
dd = wind direction
rr = precipitation

Next stations